Time;durP1;ratioP1;P1;durP2;ratioP2;P2;SDS_P1;SDS_P2;PMS_P1;PMS_P2;Temp;Humidity;BMP_temperature;BMP_pressure;BME280_temperature;BME280_humidity;BME280_pressure;Samples;Min_cycle;Max_cycle;Signal;HPM_P1;HPM_P2
2022/05/17 00:01:53;;;;;;;4.53;3.63;;;;;;;;;;4957228;28;20794;-79
2022/05/17 00:04:21;;;;;;;5.13;3.90;;;;;;;;;;4964610;28;20469;-79
2022/05/17 00:06:47;;;;;;;3.90;3.50;;;;;;;;;;4954918;29;20443;-78
2022/05/17 00:09:16;;;;;;;4.33;3.93;;;;;;;;;;4954007;29;20486;-79
2022/05/17 00:11:45;;;;;;;4.40;3.97;;;;;;;;;;4967532;28;20463;-79
2022/05/17 00:14:12;;;;;;;5.30;3.60;;;;;;;;;;4973723;28;20450;-79
2022/05/17 00:16:38;;;;;;;4.40;3.67;;;;;;;;;;4972613;28;20802;-79
2022/05/17 00:19:05;;;;;;;6.17;4.00;;;;;;;;;;4974476;28;20434;-79
2022/05/17 00:21:33;;;;;;;4.70;4.10;;;;;;;;;;4972171;28;20456;-79
2022/05/17 00:23:59;;;;;;;7.20;4.10;;;;;;;;;;4957003;28;20486;-79
2022/05/17 00:26:26;;;;;;;4.60;4.13;;;;;;;;;;4955669;28;20530;-79
2022/05/17 00:28:53;;;;;;;4.13;3.43;;;;;;;;;;4939113;28;20455;-79
2022/05/17 00:31:19;;;;;;;3.87;3.47;;;;;;;;;;4973100;28;20858;-79
2022/05/17 00:33:46;;;;;;;4.73;4.10;;;;;;;;;;4956457;28;20512;-79
2022/05/17 00:36:12;;;;;;;4.97;3.53;;;;;;;;;;4956259;28;20453;-79
2022/05/17 00:38:40;;;;;;;4.27;3.87;;;;;;;;;;4972990;28;20450;-79
2022/05/17 00:41:07;;;;;;;6.47;4.00;;;;;;;;;;4974113;28;20446;-79
2022/05/17 00:44:42;;;;;;;4.23;3.83;;;;;;;;;;4974783;28;21197;-79
2022/05/17 00:46:24;;;;;;;4.93;4.03;;;;;;;;;;4971722;28;20834;-79
2022/05/17 00:48:51;;;;;;;5.13;3.47;;;;;;;;;;4956258;28;20569;-79
2022/05/17 00:51:17;;;;;;;5.77;4.30;;;;;;;;;;4971044;28;20461;-79
2022/05/17 00:53:46;;;;;;;5.00;4.10;;;;;;;;;;4955195;28;20442;-79
2022/05/17 00:56:14;;;;;;;4.80;3.50;;;;;;;;;;4970205;28;20469;-79
2022/05/17 00:58:43;;;;;;;4.70;3.63;;;;;;;;;;4977308;28;20488;-79
2022/05/17 01:01:12;;;;;;;4.70;3.93;;;;;;;;;;4992983;28;20476;-79
2022/05/17 01:03:47;;;;;;;5.97;4.10;;;;;;;;;;4949464;28;20490;-78
2022/05/17 01:06:14;;;;;;;4.33;3.17;;;;;;;;;;4954874;28;20449;-79
2022/05/17 01:08:40;;;;;;;4.50;4.10;;;;;;;;;;4955844;28;20950;-78
2022/05/17 01:11:08;;;;;;;5.70;3.63;;;;;;;;;;4964872;28;20510;-78
2022/05/17 01:16:19;;;;;;;4.00;3.60;;;;;;;;;;4955283;28;20446;-79
2022/05/17 01:18:45;;;;;;;4.30;3.90;;;;;;;;;;4955772;28;20449;-78
2022/05/17 01:21:13;;;;;;;5.17;4.77;;;;;;;;;;4965088;28;20438;-79
2022/05/17 01:23:40;;;;;;;4.23;3.87;;;;;;;;;;4955348;28;20876;-79
2022/05/17 01:26:08;;;;;;;8.60;4.33;;;;;;;;;;4978597;28;20438;-79
2022/05/17 01:28:37;;;;;;;4.20;3.80;;;;;;;;;;4983761;28;20470;-79
2022/05/17 01:31:05;;;;;;;4.37;3.97;;;;;;;;;;4952677;29;20473;-79
2022/05/17 01:33:32;;;;;;;4.53;4.13;;;;;;;;;;4931097;28;20459;-78
2022/05/17 01:35:59;;;;;;;4.90;4.27;;;;;;;;;;4973133;28;20438;-79
2022/05/17 01:38:27;;;;;;;4.50;4.10;;;;;;;;;;4939502;28;20534;-79
2022/05/17 01:40:53;;;;;;;6.60;4.27;;;;;;;;;;4968275;28;22008;-78
2022/05/17 01:43:20;;;;;;;4.90;4.23;;;;;;;;;;4971464;28;20442;-78
2022/05/17 01:45:46;;;;;;;5.07;4.03;;;;;;;;;;4971628;28;20444;-79
2022/05/17 01:48:13;;;;;;;6.60;4.50;;;;;;;;;;4955088;28;20478;-78
2022/05/17 01:50:39;;;;;;;5.23;4.60;;;;;;;;;;4948274;29;20467;-78
2022/05/17 01:53:06;;;;;;;7.63;4.87;;;;;;;;;;4947255;29;20493;-78
2022/05/17 01:55:34;;;;;;;4.87;3.97;;;;;;;;;;4972181;28;20608;-81
2022/05/17 01:58:01;;;;;;;4.70;4.30;;;;;;;;;;4987023;28;20552;-78
2022/05/17 02:00:27;;;;;;;6.37;4.07;;;;;;;;;;4976889;28;20482;-79
2022/05/17 02:02:54;;;;;;;7.10;6.20;;;;;;;;;;4954868;28;20447;-78
2022/05/17 02:05:21;;;;;;;5.37;4.83;;;;;;;;;;4955147;28;20450;-78
2022/05/17 02:07:50;;;;;;;7.40;4.97;;;;;;;;;;4953766;28;20434;-78
2022/05/17 02:10:16;;;;;;;7.07;4.73;;;;;;;;;;4952442;28;20473;-78
2022/05/17 02:12:44;;;;;;;5.97;5.30;;;;;;;;;;4972264;28;20517;-78
2022/05/17 02:15:11;;;;;;;5.60;5.10;;;;;;;;;;4973518;28;20461;-78
2022/05/17 02:17:38;;;;;;;6.00;5.40;;;;;;;;;;4939106;28;20438;-78
2022/05/17 02:20:05;;;;;;;6.33;5.40;;;;;;;;;;4953848;28;20454;-78
2022/05/17 02:22:32;;;;;;;5.57;5.03;;;;;;;;;;4972197;28;20922;-78
2022/05/17 02:24:58;;;;;;;5.20;4.70;;;;;;;;;;4972156;28;20545;-78
2022/05/17 02:27:25;;;;;;;7.77;4.93;;;;;;;;;;4971698;28;20431;-78
2022/05/17 02:29:53;;;;;;;6.13;5.40;;;;;;;;;;4966771;28;20514;-78
2022/05/17 02:32:19;;;;;;;6.43;5.40;;;;;;;;;;4971770;28;20451;-78
2022/05/17 02:34:46;;;;;;;7.60;5.20;;;;;;;;;;4972619;28;20853;-78
2022/05/17 02:37:15;;;;;;;5.97;5.37;;;;;;;;;;4939767;28;20452;-78
2022/05/17 02:39:41;;;;;;;5.70;4.90;;;;;;;;;;4964516;28;20811;-78
2022/05/17 02:42:09;;;;;;;4.93;4.43;;;;;;;;;;4972126;28;20431;-78
2022/05/17 02:44:35;;;;;;;5.40;4.87;;;;;;;;;;4971239;28;20447;-78
2022/05/17 02:47:03;;;;;;;6.53;5.03;;;;;;;;;;4971846;28;20791;-78
2022/05/17 02:49:30;;;;;;;5.07;4.40;;;;;;;;;;4969899;28;20553;-81
2022/05/17 02:52:00;;;;;;;7.70;4.63;;;;;;;;;;4954411;28;20543;-81
2022/05/17 02:54:26;;;;;;;4.50;4.10;;;;;;;;;;4950416;29;20479;-80
2022/05/17 02:56:53;;;;;;;4.90;4.50;;;;;;;;;;4941024;28;20523;-81
2022/05/17 02:59:20;;;;;;;6.33;4.80;;;;;;;;;;4936952;28;20481;-80
2022/05/17 03:01:46;;;;;;;5.40;4.90;;;;;;;;;;4947612;29;20435;-81
2022/05/17 03:04:15;;;;;;;6.07;4.83;;;;;;;;;;4952464;28;20817;-81
2022/05/17 03:06:42;;;;;;;5.70;5.10;;;;;;;;;;4952910;28;20804;-80
2022/05/17 03:09:09;;;;;;;5.90;4.57;;;;;;;;;;4963568;28;20454;-80
2022/05/17 03:11:36;;;;;;;7.13;5.20;;;;;;;;;;4938382;29;20475;-80
2022/05/17 03:14:03;;;;;;;4.50;4.10;;;;;;;;;;4935211;29;20509;-80
2022/05/17 03:16:30;;;;;;;6.80;5.10;;;;;;;;;;4944293;28;20470;-80
2022/05/17 03:18:57;;;;;;;5.17;4.67;;;;;;;;;;4953798;28;20953;-80
2022/05/17 03:21:24;;;;;;;7.13;4.90;;;;;;;;;;4971830;28;20431;-80
2022/05/17 03:23:51;;;;;;;5.90;4.60;;;;;;;;;;4953982;28;20806;-80
2022/05/17 03:26:17;;;;;;;4.83;4.33;;;;;;;;;;4951742;28;20446;-80
2022/05/17 03:28:44;;;;;;;5.93;4.30;;;;;;;;;;4943388;28;20600;-80
2022/05/17 03:31:11;;;;;;;5.63;4.57;;;;;;;;;;4971644;28;20473;-80
2022/05/17 03:33:38;;;;;;;9.33;4.93;;;;;;;;;;4945555;29;20459;-80
2022/05/17 03:36:05;;;;;;;6.40;5.10;;;;;;;;;;4934051;29;20466;-80
2022/05/17 03:38:33;;;;;;;5.60;4.80;;;;;;;;;;4934929;29;20439;-81
2022/05/17 03:41:00;;;;;;;5.03;4.40;;;;;;;;;;4935066;29;20443;-80
2022/05/17 03:43:27;;;;;;;6.33;5.40;;;;;;;;;;4952450;29;20457;-80
2022/05/17 03:45:54;;;;;;;7.50;5.30;;;;;;;;;;4941222;28;20546;-80
2022/05/17 03:48:20;;;;;;;7.40;4.90;;;;;;;;;;4971853;28;20431;-80
2022/05/17 03:50:47;;;;;;;5.70;4.60;;;;;;;;;;4920989;29;20475;-80
2022/05/17 03:53:14;;;;;;;6.20;4.57;;;;;;;;;;4931950;29;20448;-80
2022/05/17 03:55:42;;;;;;;5.30;4.80;;;;;;;;;;4949500;28;20457;-80
2022/05/17 03:58:12;;;;;;;5.60;5.00;;;;;;;;;;4957261;28;20883;-79
2022/05/17 04:00:39;;;;;;;6.90;4.67;;;;;;;;;;4971725;28;20434;-80
2022/05/17 04:03:05;;;;;;;5.37;4.87;;;;;;;;;;4964714;28;20520;-80
2022/05/17 04:05:32;;;;;;;5.90;5.40;;;;;;;;;;4960553;28;20550;-80
2022/05/17 04:07:58;;;;;;;7.63;5.10;;;;;;;;;;4941520;28;20446;-80
2022/05/17 04:10:25;;;;;;;5.20;4.43;;;;;;;;;;4941399;28;21028;-80
2022/05/17 04:12:53;;;;;;;5.13;4.40;;;;;;;;;;4955556;28;20446;-80
2022/05/17 04:15:20;;;;;;;5.93;5.33;;;;;;;;;;4956713;28;20488;-81
2022/05/17 04:17:47;;;;;;;5.10;4.50;;;;;;;;;;4939601;28;20474;-80
2022/05/17 04:20:15;;;;;;;6.90;5.17;;;;;;;;;;4971567;28;20501;-81
2022/05/17 04:22:42;;;;;;;6.20;5.33;;;;;;;;;;4974045;28;20516;-81
2022/05/17 04:25:08;;;;;;;9.97;5.50;;;;;;;;;;4973346;28;20521;-81
2022/05/17 04:27:35;;;;;;;6.03;4.90;;;;;;;;;;4938847;28;20445;-81
2022/05/17 04:30:04;;;;;;;5.63;4.93;;;;;;;;;;4956632;28;20446;-81
2022/05/17 04:32:30;;;;;;;7.67;5.40;;;;;;;;;;4974055;28;20434;-81
2022/05/17 04:34:57;;;;;;;6.00;5.27;;;;;;;;;;4949909;29;20451;-81
2022/05/17 04:37:23;;;;;;;4.90;4.40;;;;;;;;;;4970887;28;20447;-81
2022/05/17 04:39:50;;;;;;;5.63;5.13;;;;;;;;;;4955931;28;20450;-81
2022/05/17 04:42:16;;;;;;;7.30;4.60;;;;;;;;;;4968895;28;20533;-81
2022/05/17 04:44:43;;;;;;;6.47;4.83;;;;;;;;;;4944822;29;20546;-81
2022/05/17 04:47:10;;;;;;;5.53;4.93;;;;;;;;;;4937350;29;20879;-81
2022/05/17 04:49:38;;;;;;;6.73;5.63;;;;;;;;;;4967352;28;20557;-82
2022/05/17 04:52:04;;;;;;;5.87;5.20;;;;;;;;;;4950085;28;20478;-81
2022/05/17 04:54:31;;;;;;;6.00;5.47;;;;;;;;;;4971631;28;20497;-81
2022/05/17 04:56:57;;;;;;;7.93;5.17;;;;;;;;;;4950932;29;20926;-81
2022/05/17 04:59:24;;;;;;;5.70;5.20;;;;;;;;;;4970822;28;20532;-81
2022/05/17 05:01:50;;;;;;;5.63;5.13;;;;;;;;;;4955384;28;20509;-81
2022/05/17 05:04:18;;;;;;;6.67;5.33;;;;;;;;;;4973337;28;20459;-81
2022/05/17 05:06:45;;;;;;;6.27;5.57;;;;;;;;;;4973804;28;20434;-80
2022/05/17 05:09:12;;;;;;;6.37;5.10;;;;;;;;;;4971448;28;20947;-81
2022/05/17 05:11:38;;;;;;;6.60;4.93;;;;;;;;;;4955226;28;20502;-80
2022/05/17 05:14:05;;;;;;;5.47;4.83;;;;;;;;;;4956771;28;20458;-80
2022/05/17 05:16:32;;;;;;;5.80;5.30;;;;;;;;;;4954275;28;20451;-80
2022/05/17 05:18:58;;;;;;;6.43;5.80;;;;;;;;;;4955239;28;20453;-79
2022/05/17 05:21:26;;;;;;;6.40;5.70;;;;;;;;;;4971737;28;20473;-81
2022/05/17 05:23:53;;;;;;;8.93;5.37;;;;;;;;;;4956111;28;20461;-81
2022/05/17 05:26:19;;;;;;;5.53;5.03;;;;;;;;;;4955062;28;20521;-81
2022/05/17 05:28:46;;;;;;;7.37;5.60;;;;;;;;;;4971929;28;21255;-82
2022/05/17 05:31:15;;;;;;;5.60;4.70;;;;;;;;;;4973294;28;20476;-81
2022/05/17 05:33:42;;;;;;;7.10;4.90;;;;;;;;;;4955204;28;20450;-82
2022/05/17 05:36:08;;;;;;;6.23;5.10;;;;;;;;;;4951724;28;20486;-82
2022/05/17 05:38:36;;;;;;;5.97;5.13;;;;;;;;;;4953643;28;20856;-82
2022/05/17 05:41:03;;;;;;;6.93;5.07;;;;;;;;;;4954814;28;20447;-82
2022/05/17 05:43:29;;;;;;;7.20;5.00;;;;;;;;;;4954496;28;20442;-82
2022/05/17 05:45:55;;;;;;;5.10;4.33;;;;;;;;;;4972194;28;20470;-82
2022/05/17 05:48:22;;;;;;;7.07;4.70;;;;;;;;;;4968995;28;20799;-82
2022/05/17 05:50:48;;;;;;;5.73;4.27;;;;;;;;;;4965164;28;20475;-82
2022/05/17 05:53:15;;;;;;;6.10;5.50;;;;;;;;;;4950541;28;20469;-79
2022/05/17 05:55:43;;;;;;;12.20;5.17;;;;;;;;;;4971052;28;20493;-79
2022/05/17 05:58:10;;;;;;;5.37;4.40;;;;;;;;;;4969202;28;20446;-79
2022/05/17 06:00:37;;;;;;;12.33;5.47;;;;;;;;;;4952960;28;20556;-80
2022/05/17 06:03:04;;;;;;;5.40;4.90;;;;;;;;;;4957825;28;20761;-80
2022/05/17 06:05:31;;;;;;;5.80;5.30;;;;;;;;;;4969908;28;20454;-79
2022/05/17 06:07:58;;;;;;;6.30;5.13;;;;;;;;;;4970045;28;20486;-79
2022/05/17 06:10:24;;;;;;;6.20;5.60;;;;;;;;;;4954383;28;20442;-79
2022/05/17 06:12:52;;;;;;;7.40;5.43;;;;;;;;;;4944022;29;20440;-80
2022/05/17 06:15:18;;;;;;;6.33;5.83;;;;;;;;;;4936193;29;20466;-79
2022/05/17 06:17:45;;;;;;;6.20;5.60;;;;;;;;;;4954169;28;20983;-79
2022/05/17 06:20:14;;;;;;;8.27;5.50;;;;;;;;;;4970231;28;20486;-80
2022/05/17 06:22:41;;;;;;;8.07;5.27;;;;;;;;;;4955003;28;20442;-80
2022/05/17 06:25:08;;;;;;;6.57;5.27;;;;;;;;;;4972940;28;20530;-79
2022/05/17 06:27:35;;;;;;;8.23;5.40;;;;;;;;;;4944506;28;20744;-80
2022/05/17 06:30:03;;;;;;;6.00;5.50;;;;;;;;;;4954125;28;20489;-80
2022/05/17 06:32:30;;;;;;;5.83;5.30;;;;;;;;;;4971962;28;20466;-80
2022/05/17 06:34:56;;;;;;;7.73;6.10;;;;;;;;;;4954809;28;20505;-80
2022/05/17 06:37:23;;;;;;;6.63;5.97;;;;;;;;;;4969128;28;20482;-80
2022/05/17 06:39:49;;;;;;;6.20;5.33;;;;;;;;;;4951016;28;20466;-80
2022/05/17 06:42:16;;;;;;;7.03;5.60;;;;;;;;;;4953959;28;20454;-80
2022/05/17 06:44:42;;;;;;;7.00;5.50;;;;;;;;;;4972608;28;20451;-80
2022/05/17 06:47:10;;;;;;;8.00;6.40;;;;;;;;;;4952527;28;21004;-80
2022/05/17 06:49:37;;;;;;;9.53;7.23;;;;;;;;;;4946215;28;20476;-79
2022/05/17 06:52:04;;;;;;;6.67;5.90;;;;;;;;;;4964969;28;21061;-80
2022/05/17 06:54:30;;;;;;;7.50;6.80;;;;;;;;;;4966492;28;20498;-80
2022/05/17 06:56:57;;;;;;;6.70;6.10;;;;;;;;;;4951907;28;20541;-80
2022/05/17 06:59:24;;;;;;;7.10;6.40;;;;;;;;;;4954615;28;20469;-80
2022/05/17 07:01:50;;;;;;;6.83;6.13;;;;;;;;;;4984992;28;20446;-80
2022/05/17 07:04:18;;;;;;;7.03;6.33;;;;;;;;;;4954810;28;20494;-80
2022/05/17 07:06:45;;;;;;;9.20;7.93;;;;;;;;;;4958908;28;20463;-80
2022/05/17 07:09:12;;;;;;;8.53;7.63;;;;;;;;;;4964717;28;20490;-80
2022/05/17 07:14:23;;;;;;;7.10;6.40;;;;;;;;;;4952217;28;20457;-80
2022/05/17 07:16:50;;;;;;;7.40;6.70;;;;;;;;;;4954651;28;20533;-80
2022/05/17 07:19:18;;;;;;;7.40;6.70;;;;;;;;;;4970486;28;20458;-80
2022/05/17 07:21:44;;;;;;;8.03;6.90;;;;;;;;;;4953396;28;20988;-80
2022/05/17 07:24:10;;;;;;;8.13;7.30;;;;;;;;;;4937997;28;20554;-80
2022/05/17 07:26:37;;;;;;;8.23;7.43;;;;;;;;;;4970598;28;20466;-80
2022/05/17 07:29:04;;;;;;;10.40;7.90;;;;;;;;;;4969309;28;20469;-80
2022/05/17 07:31:31;;;;;;;9.00;8.13;;;;;;;;;;4954567;28;20482;-80
2022/05/17 07:33:58;;;;;;;10.10;7.50;;;;;;;;;;4956637;28;20458;-80
2022/05/17 07:36:27;;;;;;;7.80;7.10;;;;;;;;;;4958014;28;20446;-81
2022/05/17 07:38:57;;;;;;;8.10;7.40;;;;;;;;;;4957280;28;20449;-80
2022/05/17 07:41:24;;;;;;;7.13;6.43;;;;;;;;;;4957481;28;20442;-81
2022/05/17 07:43:51;;;;;;;8.10;7.43;;;;;;;;;;4954226;28;20920;-81
2022/05/17 07:46:17;;;;;;;11.33;6.73;;;;;;;;;;4974502;28;20798;-80
2022/05/17 07:48:44;;;;;;;8.20;7.03;;;;;;;;;;4954527;28;20494;-80
2022/05/17 07:51:11;;;;;;;7.07;5.83;;;;;;;;;;4957841;28;20457;-80
2022/05/17 07:53:38;;;;;;;7.77;7.07;;;;;;;;;;4973360;28;20917;-80
2022/05/17 07:56:05;;;;;;;6.90;6.30;;;;;;;;;;4941692;28;20521;-80
2022/05/17 07:58:32;;;;;;;7.40;6.70;;;;;;;;;;4954715;28;20798;-80
2022/05/17 08:00:58;;;;;;;6.60;5.90;;;;;;;;;;4974111;28;21021;-81
2022/05/17 08:03:25;;;;;;;8.30;5.97;;;;;;;;;;4956561;28;20446;-80
2022/05/17 08:05:52;;;;;;;6.50;5.90;;;;;;;;;;4971124;28;20871;-81
2022/05/17 08:08:18;;;;;;;6.40;5.70;;;;;;;;;;4969717;28;20462;-80
2022/05/17 08:10:47;;;;;;;6.70;5.93;;;;;;;;;;4956355;28;20851;-80
2022/05/17 08:13:14;;;;;;;7.33;6.00;;;;;;;;;;4957065;28;20497;-80
2022/05/17 08:15:41;;;;;;;7.33;6.50;;;;;;;;;;4956152;28;20438;-80
2022/05/17 08:18:07;;;;;;;7.23;5.93;;;;;;;;;;4973877;28;20987;-80
2022/05/17 08:20:34;;;;;;;7.90;5.70;;;;;;;;;;4938819;28;20986;-80
2022/05/17 08:23:01;;;;;;;6.67;5.97;;;;;;;;;;4956451;28;20802;-80
2022/05/17 08:28:13;;;;;;;7.33;6.63;;;;;;;;;;4956198;28;20466;-80
2022/05/17 08:30:40;;;;;;;7.70;6.87;;;;;;;;;;4974290;28;20435;-81
2022/05/17 08:33:17;;;;;;;7.30;6.60;;;;;;;;;;4956669;28;20474;-80
2022/05/17 08:35:44;;;;;;;8.50;6.50;;;;;;;;;;4954743;28;20474;-80
2022/05/17 08:38:12;;;;;;;6.57;5.97;;;;;;;;;;4972709;28;20465;-81
2022/05/17 08:40:42;;;;;;;8.37;6.20;;;;;;;;;;4954969;28;20525;-81
2022/05/17 08:43:13;;;;;;;8.33;6.47;;;;;;;;;;4973399;28;20824;-81
2022/05/17 08:45:48;;;;;;;6.03;5.43;;;;;;;;;;4956829;28;20822;-81
2022/05/17 08:48:17;;;;;;;5.77;5.20;;;;;;;;;;4955953;28;20575;-81
2022/05/17 08:50:45;;;;;;;6.33;5.67;;;;;;;;;;4963138;28;20457;-81
2022/05/17 08:53:15;;;;;;;8.67;5.50;;;;;;;;;;4956229;28;20466;-80
2022/05/17 08:55:42;;;;;;;5.67;5.10;;;;;;;;;;4953810;28;20469;-80
2022/05/17 08:58:13;;;;;;;5.40;4.90;;;;;;;;;;4975363;28;20453;-80
2022/05/17 09:00:40;;;;;;;5.70;5.20;;;;;;;;;;4972646;28;20419;-81
2022/05/17 09:03:17;;;;;;;5.10;4.60;;;;;;;;;;4961756;28;20990;-81
2022/05/17 09:05:47;;;;;;;4.63;3.90;;;;;;;;;;4952575;29;20439;-81
2022/05/17 09:08:16;;;;;;;6.40;5.80;;;;;;;;;;4949113;28;20435;-81
2022/05/17 09:10:46;;;;;;;5.17;4.70;;;;;;;;;;4973216;28;20944;-81
2022/05/17 09:13:15;;;;;;;5.20;4.70;;;;;;;;;;4956216;28;20481;-81
2022/05/17 09:15:43;;;;;;;5.10;4.60;;;;;;;;;;4972454;28;20445;-80
2022/05/17 09:18:11;;;;;;;4.90;4.50;;;;;;;;;;4947761;28;20446;-80
2022/05/17 09:20:39;;;;;;;4.87;4.30;;;;;;;;;;4947160;28;20459;-80
2022/05/17 09:23:06;;;;;;;5.77;5.00;;;;;;;;;;4967134;28;20446;-80
2022/05/17 09:25:50;;;;;;;5.30;4.90;;;;;;;;;;4952378;28;20466;-80
2022/05/17 09:28:18;;;;;;;6.73;5.23;;;;;;;;;;4966324;28;20993;-80
2022/05/17 09:30:45;;;;;;;6.80;5.77;;;;;;;;;;4954546;28;20450;-81
2022/05/17 09:33:14;;;;;;;5.43;4.93;;;;;;;;;;4955352;28;20467;-80
2022/05/17 09:35:44;;;;;;;7.07;5.13;;;;;;;;;;4955183;28;20521;-81
2022/05/17 09:38:15;;;;;;;5.73;5.13;;;;;;;;;;4971852;28;20449;-80
2022/05/17 09:40:48;;;;;;;5.90;5.17;;;;;;;;;;4954967;28;20442;-80
2022/05/17 09:43:16;;;;;;;6.20;5.27;;;;;;;;;;4955079;28;20450;-80
2022/05/17 09:45:50;;;;;;;5.40;4.90;;;;;;;;;;4969470;28;20941;-80
2022/05/17 09:48:27;;;;;;;7.47;5.13;;;;;;;;;;4947479;28;20446;-81
2022/05/17 09:53:41;;;;;;;5.23;4.80;;;;;;;;;;4972235;28;20485;-80
2022/05/17 09:56:08;;;;;;;5.37;4.87;;;;;;;;;;4953040;28;20465;-80
2022/05/17 09:58:38;;;;;;;5.87;5.27;;;;;;;;;;4969470;28;20490;-80
2022/05/17 10:01:08;;;;;;;5.83;4.90;;;;;;;;;;4955102;28;20490;-80
2022/05/17 10:03:35;;;;;;;5.53;5.00;;;;;;;;;;4955596;28;20777;-80
2022/05/17 10:06:06;;;;;;;5.87;5.37;;;;;;;;;;4939613;28;20533;-80
2022/05/17 10:08:38;;;;;;;9.73;5.33;;;;;;;;;;4973112;28;20445;-80
2022/05/17 10:11:07;;;;;;;5.90;5.37;;;;;;;;;;4972345;28;20434;-80
2022/05/17 10:13:35;;;;;;;6.03;5.23;;;;;;;;;;4953985;28;20509;-80
2022/05/17 10:16:05;;;;;;;6.60;5.63;;;;;;;;;;4940852;28;20513;-80
2022/05/17 10:18:36;;;;;;;6.83;5.40;;;;;;;;;;4953156;28;20473;-80
2022/05/17 10:21:10;;;;;;;5.70;5.20;;;;;;;;;;4972018;28;20430;-80
2022/05/17 10:23:40;;;;;;;6.00;5.50;;;;;;;;;;4954619;28;20454;-80
2022/05/17 10:26:08;;;;;;;6.10;5.40;;;;;;;;;;4936005;29;20918;-80
2022/05/17 10:28:39;;;;;;;5.73;5.07;;;;;;;;;;4937502;28;20926;-80
2022/05/17 10:31:11;;;;;;;5.90;5.40;;;;;;;;;;4953869;28;20486;-80
2022/05/17 10:33:56;;;;;;;6.00;5.07;;;;;;;;;;4953384;28;20839;-80
2022/05/17 10:36:26;;;;;;;5.87;5.30;;;;;;;;;;4953906;28;20452;-80
2022/05/17 10:38:59;;;;;;;5.37;4.70;;;;;;;;;;4972939;28;20937;-80
2022/05/17 10:41:26;;;;;;;5.90;5.30;;;;;;;;;;4975775;28;20998;-80
2022/05/17 10:43:53;;;;;;;6.27;5.53;;;;;;;;;;4967348;28;20480;-79
2022/05/17 10:46:25;;;;;;;5.73;5.17;;;;;;;;;;4971393;28;20444;-80
2022/05/17 10:48:56;;;;;;;5.80;5.10;;;;;;;;;;4953491;28;20466;-79
2022/05/17 10:51:25;;;;;;;6.27;5.67;;;;;;;;;;4953022;28;20954;-80
2022/05/17 10:54:01;;;;;;;7.00;5.20;;;;;;;;;;4943805;28;20483;-80
2022/05/17 10:56:41;;;;;;;6.47;5.00;;;;;;;;;;4972041;28;20449;-80
2022/05/17 10:59:13;;;;;;;5.50;4.50;;;;;;;;;;4955053;28;20493;-80
2022/05/17 11:01:44;;;;;;;5.47;4.90;;;;;;;;;;4969390;28;20442;-80
2022/05/17 11:04:24;;;;;;;6.73;5.57;;;;;;;;;;4969316;28;20451;-80
2022/05/17 11:06:59;;;;;;;5.80;5.13;;;;;;;;;;4970285;28;20508;-80
2022/05/17 11:09:30;;;;;;;7.87;6.40;;;;;;;;;;4970179;28;20455;-80
2022/05/17 11:12:04;;;;;;;8.23;5.00;;;;;;;;;;4965278;28;20450;-80
2022/05/17 11:14:33;;;;;;;6.90;5.80;;;;;;;;;;4957638;28;20460;-80
2022/05/17 11:17:04;;;;;;;9.40;5.37;;;;;;;;;;4953979;28;20490;-80
2022/05/17 11:19:34;;;;;;;6.97;5.17;;;;;;;;;;4956617;28;20469;-80
2022/05/17 11:22:04;;;;;;;6.27;4.53;;;;;;;;;;4958459;28;20489;-79
2022/05/17 11:24:40;;;;;;;6.20;5.60;;;;;;;;;;4943211;28;20434;-79
2022/05/17 11:27:13;;;;;;;5.27;4.77;;;;;;;;;;4975210;28;20445;-80
2022/05/17 11:29:54;;;;;;;5.53;4.90;;;;;;;;;;4960053;28;20463;-80
2022/05/17 11:32:25;;;;;;;5.27;4.70;;;;;;;;;;4965278;28;21137;-80
2022/05/17 11:35:02;;;;;;;5.13;4.63;;;;;;;;;;4955032;28;20454;-80
2022/05/17 11:37:46;;;;;;;10.97;3.83;;;;;;;;;;4961244;28;20440;-80
2022/05/17 11:40:34;;;;;;;6.40;3.90;;;;;;;;;;4973118;28;20451;-79
2022/05/17 11:45:50;;;;;;;4.70;4.10;;;;;;;;;;4972318;28;20504;-80
2022/05/17 11:48:17;;;;;;;5.67;4.63;;;;;;;;;;4978839;28;20545;-80
2022/05/17 11:50:46;;;;;;;6.00;4.27;;;;;;;;;;4954745;28;20980;-79
2022/05/17 11:53:34;;;;;;;5.90;4.00;;;;;;;;;;4957504;28;20462;-79
2022/05/17 11:56:15;;;;;;;4.03;3.63;;;;;;;;;;4972012;28;20449;-79
2022/05/17 11:58:44;;;;;;;4.63;4.17;;;;;;;;;;4966363;28;20514;-80
2022/05/17 12:01:29;;;;;;;4.63;4.23;;;;;;;;;;4971526;28;20968;-79
2022/05/17 12:03:56;;;;;;;3.67;3.30;;;;;;;;;;4973828;28;20869;-79
2022/05/17 12:06:36;;;;;;;5.53;3.57;;;;;;;;;;4958045;28;20430;-79
2022/05/17 12:09:05;;;;;;;4.43;4.03;;;;;;;;;;4972144;28;20454;-80
2022/05/17 12:11:37;;;;;;;4.20;3.10;;;;;;;;;;4956102;28;20434;-79
2022/05/17 12:14:12;;;;;;;7.20;3.70;;;;;;;;;;4970125;28;20824;-80
2022/05/17 12:16:48;;;;;;;5.67;3.27;;;;;;;;;;4962339;28;20839;-80
2022/05/17 12:19:19;;;;;;;5.00;3.77;;;;;;;;;;4956866;28;20457;-79
2022/05/17 12:21:50;;;;;;;3.97;3.03;;;;;;;;;;4938238;28;20435;-79
2022/05/17 12:24:33;;;;;;;3.90;3.60;;;;;;;;;;4953199;28;20939;-80
2022/05/17 12:27:08;;;;;;;3.60;3.23;;;;;;;;;;4945142;28;20469;-79
2022/05/17 12:32:23;;;;;;;9.60;3.30;;;;;;;;;;4951989;28;20466;-79
2022/05/17 12:34:53;;;;;;;3.70;3.10;;;;;;;;;;4972791;28;20586;-79
2022/05/17 12:37:24;;;;;;;4.03;3.10;;;;;;;;;;4953193;28;20449;-79
2022/05/17 12:45:24;;;;;;;3.00;2.70;;;;;;;;;;4938505;28;20531;-80
2022/05/17 12:47:52;;;;;;;5.53;2.57;;;;;;;;;;4986147;28;20806;-80
2022/05/17 12:50:21;;;;;;;3.10;2.77;;;;;;;;;;4968704;28;20856;-80
2022/05/17 12:52:52;;;;;;;3.70;2.50;;;;;;;;;;4950962;28;20570;-80
2022/05/17 12:55:21;;;;;;;2.63;1.87;;;;;;;;;;4954427;28;20450;-80
2022/05/17 12:57:49;;;;;;;1.90;1.70;;;;;;;;;;4952587;28;20459;-79
2022/05/17 13:00:17;;;;;;;2.50;2.30;;;;;;;;;;4963202;28;20493;-80
2022/05/17 13:02:44;;;;;;;3.73;2.40;;;;;;;;;;4956092;28;20791;-80
2022/05/17 13:05:32;;;;;;;2.50;2.10;;;;;;;;;;4959592;28;20486;-79
2022/05/17 13:07:59;;;;;;;1.87;1.77;;;;;;;;;;4952270;28;20858;-79
2022/05/17 13:10:26;;;;;;;2.77;2.30;;;;;;;;;;4974889;28;20457;-80
2022/05/17 13:12:55;;;;;;;3.37;2.17;;;;;;;;;;4955236;28;20841;-79
2022/05/17 13:15:22;;;;;;;2.00;1.80;;;;;;;;;;4970620;28;20469;-80
2022/05/17 13:17:52;;;;;;;2.17;1.97;;;;;;;;;;4975210;28;20512;-79
2022/05/17 13:20:21;;;;;;;2.73;1.97;;;;;;;;;;4953326;28;20457;-79
2022/05/17 13:22:51;;;;;;;1.87;1.67;;;;;;;;;;4958852;28;20468;-80
2022/05/17 13:25:19;;;;;;;2.00;1.80;;;;;;;;;;4973524;28;20456;-80
2022/05/17 13:27:47;;;;;;;2.37;1.93;;;;;;;;;;4964040;28;20455;-80
2022/05/17 13:30:24;;;;;;;3.00;2.07;;;;;;;;;;4970640;28;20435;-79
2022/05/17 13:32:51;;;;;;;2.20;2.00;;;;;;;;;;4976289;28;20453;-81
2022/05/17 13:35:20;;;;;;;4.93;1.80;;;;;;;;;;4968701;28;20505;-80
2022/05/17 13:37:54;;;;;;;2.43;1.90;;;;;;;;;;4958403;28;20450;-80
2022/05/17 13:40:34;;;;;;;5.70;2.00;;;;;;;;;;4966306;28;20473;-79
2022/05/17 13:43:00;;;;;;;2.20;2.00;;;;;;;;;;4951106;28;20438;-79
2022/05/17 13:45:34;;;;;;;3.20;2.07;;;;;;;;;;4954722;28;20458;-79
2022/05/17 13:48:00;;;;;;;2.03;1.70;;;;;;;;;;4965211;28;20448;-79
2022/05/17 13:50:30;;;;;;;1.70;1.60;;;;;;;;;;4951674;28;20458;-79
2022/05/17 13:52:59;;;;;;;1.93;1.73;;;;;;;;;;4960400;28;20474;-80
2022/05/17 13:55:28;;;;;;;3.37;1.87;;;;;;;;;;4934699;28;20501;-80
2022/05/17 13:57:56;;;;;;;1.90;1.70;;;;;;;;;;4954661;28;20445;-80
2022/05/17 14:00:24;;;;;;;3.27;1.67;;;;;;;;;;4955294;28;20487;-79
2022/05/17 14:02:57;;;;;;;2.77;1.97;;;;;;;;;;4950117;28;20460;-80
2022/05/17 14:05:25;;;;;;;2.47;1.93;;;;;;;;;;4959066;28;20447;-79
2022/05/17 14:07:53;;;;;;;2.43;1.80;;;;;;;;;;4958214;28;20553;-80
2022/05/17 14:13:07;;;;;;;2.10;1.80;;;;;;;;;;4954607;28;20526;-80
2022/05/17 14:15:34;;;;;;;2.30;1.80;;;;;;;;;;4958834;28;20454;-80
2022/05/17 14:18:02;;;;;;;2.30;2.10;;;;;;;;;;4951679;28;20517;-80
2022/05/17 14:20:28;;;;;;;2.17;2.00;;;;;;;;;;4943460;28;20454;-80
2022/05/17 14:22:56;;;;;;;2.00;1.90;;;;;;;;;;4951045;28;20465;-79
2022/05/17 14:25:23;;;;;;;2.27;1.83;;;;;;;;;;4961112;28;20650;-79
2022/05/17 14:27:50;;;;;;;2.43;2.00;;;;;;;;;;4951973;28;20966;-80
2022/05/17 14:30:16;;;;;;;3.30;2.00;;;;;;;;;;4957633;28;20450;-80
2022/05/17 14:32:43;;;;;;;2.20;2.00;;;;;;;;;;4949729;28;20455;-80
2022/05/17 14:35:11;;;;;;;4.07;2.00;;;;;;;;;;4962869;28;20475;-79
2022/05/17 14:37:37;;;;;;;3.23;2.83;;;;;;;;;;4957395;28;20458;-80
2022/05/17 14:40:04;;;;;;;2.20;1.80;;;;;;;;;;4961401;28;20455;-80
2022/05/17 14:42:31;;;;;;;3.90;1.87;;;;;;;;;;4942679;29;20555;-79
2022/05/17 14:44:58;;;;;;;3.03;2.13;;;;;;;;;;4956341;28;20530;-79
2022/05/17 14:47:25;;;;;;;2.00;1.77;;;;;;;;;;4942538;28;20818;-79
2022/05/17 14:49:54;;;;;;;2.67;2.07;;;;;;;;;;4949561;28;20463;-79
2022/05/17 14:52:22;;;;;;;2.57;2.10;;;;;;;;;;4940721;28;20790;-79
2022/05/17 14:54:49;;;;;;;2.07;1.87;;;;;;;;;;4962573;28;20875;-79
2022/05/17 14:57:16;;;;;;;2.30;2.10;;;;;;;;;;4950513;28;20535;-79
2022/05/17 14:59:43;;;;;;;2.93;1.90;;;;;;;;;;4962299;28;20486;-80
2022/05/17 15:02:11;;;;;;;2.57;2.37;;;;;;;;;;4949167;28;20473;-79
2022/05/17 15:04:40;;;;;;;2.67;2.37;;;;;;;;;;4961876;28;20458;-79
2022/05/17 15:07:09;;;;;;;2.43;2.23;;;;;;;;;;4966590;28;20457;-79
2022/05/17 15:09:37;;;;;;;2.63;2.40;;;;;;;;;;4982174;28;20449;-80
2022/05/17 15:12:05;;;;;;;2.27;2.03;;;;;;;;;;4980337;28;20460;-80
2022/05/17 15:14:31;;;;;;;3.27;1.97;;;;;;;;;;4983229;28;20493;-79
2022/05/17 15:16:59;;;;;;;2.57;2.27;;;;;;;;;;4962982;28;20541;-79